MMTCMMPR

Guest
Details From MMTC - TORREON INTL
To MMPR - LICENCIADO GUSTAVO DIAZ ORDAZ INTL
Flight Number -
Tags generated
Created
Modified
Stats Distance 318 nm / 589 km
Max Altitude 18,500 ft / 5,639 m
Waypoints 5
Social Downloads 2
Likes 0
Share VATSIM

Download

Looking for another format? Having issues loading an existing format? Contact us
Advertisement - Login to hide

Notes

Basic altitude profile: - Ascent Rate: 2500ft/min - Ascent Speed: 250kts - Cruise Altitude: 300ft - Cruise Speed: 420kts - Descent Rate: 1500ft/min - Descent Speed: 250kts

Route

MMTC DGO UJ37 BRISA MMPR

ID Type Via Altitude Latitude Longitude Leg Dist Tot Dist Heading (true) Name
O MMTC APT - 0 ft / 0 m 25.56564˚ -103.40539˚ - 0 nm - TORREON INTL
DGO VOR - 300 ft / 91 m 24.13801˚ -104.51642˚ 104 nm 104 nm 215° / 215° DURANGO VOR-DME
MAVED FIX UJ37 (AWY-HI) 18,500 ft / 5,639 m 22.59957˚ -104.69986˚ 92 nm 197 nm 186° / 186° -
BRISA FIX UJ37 (AWY-HI) 18,500 ft / 5,639 m 21.85687˚ -104.78694˚ 44 nm 242 nm 186° / 186° -
O MMPR APT - 0 ft / 0 m 20.68007˚ -105.25415˚ 75 nm 318 nm 200° / 200° LICENCIADO GUSTAVO DIAZ ORDAZ INTL

Altitude Profile

Advertisement - Login to hide

Weather


0- 5 10 15 20 25 30 35+ Temperature / ° C

Clouds and Precipitation
Forecast for 2018-05-23 00:00 UTC. Updated 3 hours ago

Ground ~20,000 ft ~40,000 ft Winds

MMTC

Details ICAO MMTC (TRC)
Name TORREON INTL
Region Mexico
Timezone America/Monterrey (UTC-5.0)
Stats Elevation 3,688 ft / 1,124 m (AMSL)
Location 25.565639° -103.405389°
Runways 2
Magnetic Variation 6.408° E

METAR

Not found

TAF

TAF MMTC 221735Z 2218/2318 04008KT P6SM SCT030 FM230000 06010KT P6SM SCT020 FM231200 07010KT 6SM HZ BKN020

Decode

Departure Runways

ID Width Length Bearing (true) Bearing (mag) Surface Threshold Offset Overrun Length
08 98 ft / 30 m 5,688 ft / 1,734 m 90.71° 84.30° Asphalt 984 ft / 300 m 0 ft / 0 m
12 148 ft / 45 m 9,032 ft / 2,753 m 135.94° 129.53° Asphalt 0 ft / 0 m 185 ft / 56 m
26 98 ft / 30 m 5,688 ft / 1,734 m 270.72° 264.31° Asphalt 0 ft / 0 m 0 ft / 0 m
30 148 ft / 45 m 9,032 ft / 2,753 m 315.95° 309.54° Asphalt 0 ft / 0 m 185 ft / 56 m

MMPR

Details ICAO MMPR (PVR)
Name LICENCIADO GUSTAVO DIAZ ORDAZ INTL
Region Mexico
Timezone America/Mexico_City (UTC-5.0)
Stats Elevation 23 ft / 7 m (AMSL)
Location 20.680069° -105.254153°
Runways 1
Magnetic Variation 6.847° E

METAR

Not found

TAF

TAF MMPR 222306Z 2300/2406 23012KT P6SM SKC TX30/2318Z TN21/2312Z BECMG 2306/2307 06005KT FM231700 23010KT P6SM SKC BECMG 2403/2404 19005KT

Decode

Destination Runways

ID Width Length Bearing (true) Bearing (mag) Surface Threshold Offset Overrun Length
04 148 ft / 45 m 10,221 ft / 3,116 m 47.05° 40.20° Asphalt 0 ft / 0 m 185 ft / 56 m
22 148 ft / 45 m 10,221 ft / 3,116 m 227.06° 220.21° Asphalt 0 ft / 0 m 185 ft / 56 m